createdAt,value
2019-05-26T00:00:12.230Z,13.50
2019-05-26T00:01:26.046Z,13.40
2019-05-26T00:02:39.366Z,13.40
2019-05-26T00:03:53.186Z,13.40
2019-05-26T00:05:06.978Z,13.40
2019-05-26T00:06:20.804Z,13.40
2019-05-26T00:07:34.075Z,13.30
2019-05-26T00:08:47.936Z,13.30
2019-05-26T00:10:02.651Z,13.30
2019-05-26T00:11:16.601Z,13.30
2019-05-26T00:12:29.840Z,13.30
2019-05-26T00:13:43.666Z,13.40
2019-05-26T00:14:56.899Z,13.30
2019-05-26T00:16:10.746Z,13.30
2019-05-26T00:17:23.992Z,13.30
2019-05-26T00:18:37.806Z,13.30
2019-05-26T00:19:51.052Z,13.30
2019-05-26T00:21:04.866Z,13.30
2019-05-26T00:22:18.300Z,13.30
2019-05-26T00:23:32.198Z,13.30
2019-05-26T00:24:45.451Z,13.30
2019-05-26T00:26:00.024Z,13.30
2019-05-26T00:27:13.263Z,13.30
2019-05-26T00:28:27.106Z,13.30
2019-05-26T00:29:40.339Z,13.30
2019-05-26T00:30:54.167Z,13.30
2019-05-26T00:32:07.406Z,13.30
2019-05-26T00:33:21.230Z,13.40
2019-05-26T00:34:34.689Z,13.30
2019-05-26T00:35:48.495Z,13.30
2019-05-26T00:37:01.811Z,13.30
2019-05-26T00:38:15.640Z,13.30
2019-05-26T00:39:28.885Z,13.30
2019-05-26T00:40:42.728Z,13.30
2019-05-26T00:41:55.980Z,13.30
2019-05-26T00:43:09.797Z,13.30
2019-05-26T00:44:23.055Z,13.20
2019-05-26T00:45:36.874Z,13.30
2019-05-26T00:46:50.140Z,13.20
2019-05-26T00:48:03.962Z,13.20
2019-05-26T00:49:17.189Z,13.30
2019-05-26T00:50:31.010Z,13.30
2019-05-26T00:51:44.252Z,13.30
2019-05-26T00:52:58.290Z,13.30
2019-05-26T00:54:11.634Z,13.30
2019-05-26T00:55:25.468Z,13.30
2019-05-26T00:56:38.695Z,13.20
2019-05-26T00:57:52.527Z,13.20
2019-05-26T00:59:05.775Z,13.20
2019-05-26T01:00:37.843Z,13.20
2019-05-26T01:01:51.092Z,13.20
2019-05-26T01:03:04.935Z,13.20
2019-05-26T01:04:18.170Z,13.20
2019-05-26T01:05:31.987Z,13.10
2019-05-26T01:06:45.218Z,13.10
2019-05-26T01:08:06.462Z,13.10
2019-05-26T01:09:14.208Z,13.10
2019-05-26T01:10:28.030Z,13.10
2019-05-26T01:11:42.382Z,13.00
2019-05-26T01:12:56.218Z,13.00
2019-05-26T01:14:09.930Z,13.00
2019-05-26T01:15:23.968Z,13.00
2019-05-26T01:16:37.194Z,13.00
2019-05-26T01:17:51.028Z,13.10
2019-05-26T01:19:04.436Z,13.10
2019-05-26T01:20:18.246Z,13.10
2019-05-26T01:21:31.486Z,13.10
2019-05-26T01:22:45.325Z,13.20
2019-05-26T01:23:58.572Z,13.10
2019-05-26T01:25:12.958Z,13.10
2019-05-26T01:26:26.195Z,13.10
2019-05-26T01:27:40.021Z,13.10
2019-05-26T01:28:53.265Z,13.00
2019-05-26T01:30:09.879Z,13.00
2019-05-26T01:31:23.695Z,13.00
2019-05-26T01:32:37.509Z,13.00
2019-05-26T01:33:50.751Z,13.00
2019-05-26T01:35:06.434Z,13.10
2019-05-26T01:36:19.674Z,13.10
2019-05-26T01:37:35.302Z,13.10
2019-05-26T01:38:48.706Z,13.00
2019-05-26T01:40:02.528Z,13.00
2019-05-26T01:41:15.919Z,13.00
2019-05-26T01:42:29.752Z,13.10
2019-05-26T01:43:44.046Z,13.10
2019-05-26T01:44:57.866Z,13.10
2019-05-26T01:46:11.107Z,13.10
2019-05-26T01:47:24.938Z,13.10
2019-05-26T01:48:38.172Z,13.00
2019-05-26T01:49:51.978Z,13.00
2019-05-26T01:51:06.231Z,13.00
2019-05-26T01:52:20.057Z,13.00
2019-05-26T01:53:33.294Z,13.10
2019-05-26T01:54:47.148Z,13.10
2019-05-26T01:56:00.362Z,13.10
2019-05-26T01:57:14.189Z,13.10
2019-05-26T01:58:27.623Z,13.10
2019-05-26T01:59:41.435Z,13.10
2019-05-26T02:00:54.667Z,13.00
2019-05-26T02:02:08.482Z,13.10
2019-05-26T02:03:21.736Z,13.10
2019-05-26T02:04:36.814Z,13.10
2019-05-26T02:05:50.266Z,13.10
2019-05-26T02:07:04.094Z,13.10
2019-05-26T02:08:17.605Z,13.10
2019-05-26T02:09:31.397Z,13.00
2019-05-26T02:10:44.637Z,13.00
2019-05-26T02:11:58.438Z,13.00
2019-05-26T02:13:12.266Z,13.00
2019-05-26T02:14:26.075Z,13.00
2019-05-26T02:15:39.374Z,13.10
2019-05-26T02:16:53.199Z,13.10
2019-05-26T02:18:06.502Z,13.00
2019-05-26T02:19:20.414Z,13.00
2019-05-26T02:20:33.638Z,12.90
2019-05-26T02:21:47.454Z,12.90
2019-05-26T02:23:00.687Z,12.90
2019-05-26T02:24:14.503Z,12.90
2019-05-26T02:25:27.917Z,13.00
2019-05-26T02:26:41.725Z,12.90
2019-05-26T02:27:54.963Z,12.90
2019-05-26T02:29:08.773Z,13.00
2019-05-26T02:30:22.215Z,12.90
2019-05-26T02:31:36.039Z,13.00
2019-05-26T02:32:49.276Z,13.00
2019-05-26T02:34:03.103Z,13.00
2019-05-26T02:35:16.428Z,13.00
2019-05-26T02:36:30.230Z,13.00
2019-05-26T02:37:43.481Z,13.00
2019-05-26T02:39:02.730Z,12.90
2019-05-26T02:40:13.386Z,12.90
2019-05-26T02:41:27.283Z,12.90
2019-05-26T02:42:40.550Z,12.90
2019-05-26T02:43:54.195Z,12.90
2019-05-26T02:45:08.294Z,13.00
2019-05-26T02:46:22.098Z,13.00
2019-05-26T02:47:35.335Z,13.00
2019-05-26T02:48:49.145Z,13.00
2019-05-26T02:50:02.399Z,13.00
2019-05-26T02:51:16.206Z,12.90
2019-05-26T02:52:29.439Z,12.80
2019-05-26T02:53:43.250Z,12.90
2019-05-26T02:54:56.501Z,12.80
2019-05-26T02:56:10.311Z,12.90
2019-05-26T02:57:23.552Z,12.90
2019-05-26T02:58:37.370Z,12.90
2019-05-26T02:59:50.589Z,12.90
2019-05-26T03:01:04.978Z,12.90
2019-05-26T03:02:18.222Z,12.90
2019-05-26T03:03:32.030Z,12.90
2019-05-26T03:04:45.355Z,12.90
2019-05-26T03:05:59.165Z,12.90
2019-05-26T03:07:12.608Z,12.90
2019-05-26T03:08:26.432Z,12.90
2019-05-26T03:09:39.663Z,12.90
2019-05-26T03:10:53.485Z,12.90
2019-05-26T03:12:06.726Z,12.90
2019-05-26T03:13:20.760Z,12.90
2019-05-26T03:14:34.000Z,12.90
2019-05-26T03:15:47.990Z,13.00
2019-05-26T03:17:01.229Z,13.00
2019-05-26T03:18:15.307Z,13.00
2019-05-26T03:19:28.553Z,13.00
2019-05-26T03:20:42.639Z,13.00
2019-05-26T03:21:56.540Z,13.00
2019-05-26T03:23:10.414Z,13.00
2019-05-26T03:24:23.656Z,12.90
2019-05-26T03:25:38.134Z,13.00
2019-05-26T03:26:51.367Z,13.00
2019-05-26T03:28:07.161Z,13.00
2019-05-26T03:29:20.597Z,13.00
2019-05-26T03:30:34.896Z,13.00
2019-05-26T03:31:48.914Z,13.00
2019-05-26T03:33:02.720Z,13.00
2019-05-26T03:34:15.990Z,13.00
2019-05-26T03:35:30.081Z,13.00
2019-05-26T03:36:43.419Z,13.00
2019-05-26T03:37:57.242Z,13.00
2019-05-26T03:39:10.545Z,13.00
2019-05-26T03:40:24.375Z,13.00
2019-05-26T03:41:37.605Z,13.00
2019-05-26T03:42:52.670Z,13.00
2019-05-26T03:44:06.033Z,13.00
2019-05-26T03:45:24.882Z,13.00
2019-05-26T03:46:38.106Z,13.00
2019-05-26T03:47:51.987Z,13.00
2019-05-26T03:49:05.216Z,13.00
2019-05-26T03:50:19.415Z,13.00
2019-05-26T03:51:32.647Z,13.00
2019-05-26T03:52:46.454Z,13.00
2019-05-26T03:53:59.689Z,13.00
2019-05-26T03:55:13.711Z,13.00
2019-05-26T03:56:26.935Z,13.00
2019-05-26T03:57:40.842Z,13.00
2019-05-26T03:58:54.087Z,13.00
2019-05-26T04:00:08.067Z,13.00
2019-05-26T04:01:21.539Z,13.00
2019-05-26T04:02:35.568Z,13.00
2019-05-26T04:03:48.799Z,13.00
2019-05-26T04:05:03.560Z,12.90
2019-05-26T04:06:16.783Z,12.90
2019-05-26T04:07:30.602Z,12.80
2019-05-26T04:08:45.860Z,12.90
2019-05-26T04:10:05.609Z,12.90
2019-05-26T04:11:14.691Z,12.90
2019-05-26T04:12:28.504Z,12.90
2019-05-26T04:13:41.743Z,12.90
2019-05-26T04:14:55.573Z,12.90
2019-05-26T04:16:08.872Z,13.00
2019-05-26T04:17:22.704Z,13.00
2019-05-26T04:18:35.931Z,13.00
2019-05-26T04:19:49.954Z,12.90
2019-05-26T04:21:03.200Z,12.90
2019-05-26T04:22:17.075Z,12.90
2019-05-26T04:23:30.552Z,12.90
2019-05-26T04:24:46.083Z,12.90
2019-05-26T04:25:59.509Z,13.00
2019-05-26T04:27:13.327Z,13.00
2019-05-26T04:28:26.794Z,13.00
2019-05-26T04:29:40.608Z,13.10
2019-05-26T04:30:53.844Z,13.00
2019-05-26T04:32:07.669Z,13.00
2019-05-26T04:33:22.022Z,13.00
2019-05-26T04:34:35.609Z,13.10
2019-05-26T04:35:50.058Z,13.10
2019-05-26T04:37:03.862Z,13.00
2019-05-26T04:38:17.111Z,13.10
2019-05-26T04:39:30.915Z,13.10
2019-05-26T04:40:44.149Z,13.00
2019-05-26T04:41:57.967Z,13.10
2019-05-26T04:43:14.699Z,13.10
2019-05-26T04:44:26.747Z,13.10
2019-05-26T04:45:39.991Z,13.10
2019-05-26T04:46:53.797Z,13.10
2019-05-26T04:48:07.022Z,13.10
2019-05-26T04:49:20.841Z,13.10
2019-05-26T04:50:34.072Z,13.10
2019-05-26T04:51:47.891Z,13.10
2019-05-26T04:53:06.545Z,13.20
2019-05-26T04:54:16.671Z,13.20
2019-05-26T04:55:29.917Z,13.20
2019-05-26T04:56:43.732Z,13.20
2019-05-26T04:57:56.967Z,13.20
2019-05-26T04:59:10.876Z,13.30
2019-05-26T05:00:24.443Z,13.20
2019-05-26T05:01:38.259Z,13.20
2019-05-26T05:02:52.062Z,13.20
2019-05-26T05:04:05.887Z,13.20
2019-05-26T05:05:19.190Z,13.30
2019-05-26T05:06:33.015Z,13.30
2019-05-26T05:07:46.246Z,13.30
2019-05-26T05:09:00.055Z,13.30
2019-05-26T05:10:13.291Z,13.40
2019-05-26T05:11:27.190Z,13.30
2019-05-26T05:12:40.431Z,13.40
2019-05-26T05:13:54.242Z,13.40
2019-05-26T05:15:07.539Z,13.40
2019-05-26T05:16:21.359Z,13.50
2019-05-26T05:17:34.612Z,13.40
2019-05-26T05:18:48.425Z,13.40
2019-05-26T05:20:01.930Z,13.50
2019-05-26T05:21:15.859Z,13.40
2019-05-26T05:22:29.094Z,13.50
2019-05-26T05:23:42.921Z,13.40
2019-05-26T05:24:56.153Z,13.50
2019-05-26T05:26:09.962Z,13.50
2019-05-26T05:27:23.215Z,13.60
2019-05-26T05:28:37.027Z,13.50
2019-05-26T05:29:50.274Z,13.60
2019-05-26T05:31:04.086Z,13.50
2019-05-26T05:32:17.334Z,13.50
2019-05-26T05:33:31.140Z,13.60
2019-05-26T05:34:45.492Z,13.60
2019-05-26T05:35:59.299Z,13.60
2019-05-26T05:37:12.531Z,13.60
2019-05-26T05:38:26.350Z,13.70
2019-05-26T05:39:39.587Z,13.70
2019-05-26T05:40:59.547Z,13.80
2019-05-26T05:42:08.554Z,13.70
2019-05-26T05:43:22.382Z,13.80
2019-05-26T05:44:35.679Z,13.80
2019-05-26T05:45:49.739Z,13.70
2019-05-26T05:47:02.954Z,13.80
2019-05-26T05:48:16.762Z,13.90
2019-05-26T05:49:30.047Z,13.90
2019-05-26T05:50:43.902Z,14.00
2019-05-26T05:51:57.211Z,14.00
2019-05-26T05:53:11.036Z,14.10
2019-05-26T05:54:24.286Z,14.10
2019-05-26T05:55:38.113Z,14.20
2019-05-26T05:56:51.346Z,14.20
2019-05-26T05:58:05.177Z,14.10
2019-05-26T05:59:18.401Z,14.10
2019-05-26T06:00:32.237Z,14.10
2019-05-26T06:01:45.476Z,14.20
2019-05-26T06:02:59.312Z,14.20
2019-05-26T06:04:12.595Z,14.10
2019-05-26T06:05:26.419Z,14.10
2019-05-26T06:06:39.644Z,14.20
2019-05-26T06:07:53.463Z,14.10
2019-05-26T06:09:08.265Z,14.10
2019-05-26T06:10:22.150Z,14.20
2019-05-26T06:11:35.750Z,14.20
2019-05-26T06:12:49.558Z,14.20
2019-05-26T06:14:03.002Z,14.30
2019-05-26T06:15:17.716Z,14.20
2019-05-26T06:16:31.074Z,14.30
2019-05-26T06:17:44.894Z,14.40
2019-05-26T06:18:58.219Z,14.30
2019-05-26T06:20:12.036Z,14.20
2019-05-26T06:21:25.543Z,14.30
2019-05-26T06:22:39.360Z,14.30
2019-05-26T06:23:52.578Z,14.30
2019-05-26T06:25:07.645Z,14.40
2019-05-26T06:26:21.206Z,14.40
2019-05-26T06:27:35.935Z,14.40
2019-05-26T06:28:52.263Z,14.50
2019-05-26T06:30:06.721Z,14.50
2019-05-26T06:31:20.231Z,14.60
2019-05-26T06:32:34.053Z,14.50
2019-05-26T06:33:47.286Z,14.60
2019-05-26T06:35:01.104Z,14.60
2019-05-26T06:36:14.547Z,14.70
2019-05-26T06:37:28.398Z,14.70
2019-05-26T06:38:41.631Z,14.80
2019-05-26T06:39:55.448Z,14.70
2019-05-26T06:41:08.703Z,14.80
2019-05-26T06:42:22.518Z,14.80
2019-05-26T06:43:35.755Z,14.80
2019-05-26T06:44:53.544Z,14.80
2019-05-26T06:46:04.529Z,14.90
2019-05-26T06:47:18.350Z,14.90
2019-05-26T06:48:31.586Z,15.00
2019-05-26T06:49:45.409Z,14.90
2019-05-26T06:50:58.644Z,14.90
2019-05-26T06:52:12.455Z,14.90
2019-05-26T06:53:25.891Z,15.00
2019-05-26T06:54:39.703Z,15.00
2019-05-26T06:55:52.974Z,14.90
2019-05-26T06:57:06.782Z,14.90
2019-05-26T06:58:20.095Z,15.00
2019-05-26T06:59:33.906Z,14.90
2019-05-26T07:00:47.155Z,15.00
2019-05-26T07:02:03.217Z,15.00
2019-05-26T07:03:16.460Z,15.10
2019-05-26T07:04:30.262Z,15.10
2019-05-26T07:05:43.516Z,15.10
2019-05-26T07:06:57.327Z,15.10
2019-05-26T07:08:10.617Z,15.20
2019-05-26T07:09:24.438Z,15.20
2019-05-26T07:10:37.760Z,15.30
2019-05-26T07:11:59.077Z,15.40
2019-05-26T07:13:06.610Z,15.40
2019-05-26T07:14:20.458Z,15.40
2019-05-26T07:15:33.692Z,15.40
2019-05-26T07:16:47.518Z,15.30
2019-05-26T07:18:00.819Z,15.30
2019-05-26T07:19:14.640Z,15.40
2019-05-26T07:20:28.074Z,15.50
2019-05-26T07:21:42.103Z,15.50
2019-05-26T07:22:55.332Z,15.60
2019-05-26T07:24:09.147Z,15.70
2019-05-26T07:25:22.374Z,15.60
2019-05-26T07:26:36.198Z,15.70
2019-05-26T07:27:49.426Z,15.50
2019-05-26T07:29:03.482Z,15.70
2019-05-26T07:30:16.720Z,15.80
2019-05-26T07:31:30.542Z,16.00
2019-05-26T07:32:43.771Z,16.00
2019-05-26T07:33:57.643Z,16.00
2019-05-26T07:35:10.867Z,16.00
2019-05-26T07:36:24.705Z,16.10
2019-05-26T07:37:37.939Z,16.20
2019-05-26T07:38:51.807Z,16.20
2019-05-26T07:40:05.590Z,16.20
2019-05-26T07:41:19.446Z,16.40
2019-05-26T07:42:32.913Z,16.50
2019-05-26T07:43:46.723Z,16.60
2019-05-26T07:44:59.955Z,16.70
2019-05-26T07:46:13.782Z,16.60
2019-05-26T07:47:27.014Z,16.70
2019-05-26T07:48:41.038Z,16.70
2019-05-26T07:49:54.275Z,16.50
2019-05-26T07:51:08.088Z,16.50
2019-05-26T07:52:21.338Z,16.40
2019-05-26T07:53:35.151Z,16.40
2019-05-26T07:54:48.398Z,16.40
2019-05-26T07:56:02.202Z,16.40
2019-05-26T07:57:15.441Z,16.40
2019-05-26T07:58:29.263Z,16.50
2019-05-26T07:59:42.613Z,16.60
2019-05-26T08:00:56.666Z,16.70
2019-05-26T08:02:09.993Z,16.80
2019-05-26T08:03:23.806Z,16.70
2019-05-26T08:04:37.034Z,16.70
2019-05-26T08:05:50.847Z,16.80
2019-05-26T08:07:04.169Z,16.70
2019-05-26T08:08:17.983Z,16.70
2019-05-26T08:09:31.278Z,16.80
2019-05-26T08:10:45.103Z,16.70
2019-05-26T08:11:58.325Z,16.90
2019-05-26T08:13:12.164Z,16.80
2019-05-26T08:14:25.395Z,16.70
2019-05-26T08:15:39.211Z,16.70
2019-05-26T08:16:52.435Z,16.90
2019-05-26T08:18:06.245Z,16.90
2019-05-26T08:19:19.494Z,16.90
2019-05-26T08:20:33.313Z,16.80
2019-05-26T08:21:46.539Z,16.80
2019-05-26T08:23:00.354Z,16.90
2019-05-26T08:24:13.579Z,17.10
2019-05-26T08:25:27.406Z,17.10
2019-05-26T08:26:41.791Z,17.10
2019-05-26T08:27:55.607Z,17.10
2019-05-26T08:29:08.835Z,17.30
2019-05-26T08:30:24.290Z,17.40
2019-05-26T08:31:37.516Z,17.40
2019-05-26T08:32:51.340Z,17.60
2019-05-26T08:34:04.575Z,17.60
2019-05-26T08:35:18.386Z,17.50
2019-05-26T08:36:31.826Z,17.50
2019-05-26T08:37:45.645Z,17.40
2019-05-26T08:38:58.882Z,17.50
2019-05-26T08:40:18.698Z,17.40
2019-05-26T08:41:31.953Z,17.40
2019-05-26T08:42:46.965Z,17.40
2019-05-26T08:44:00.197Z,17.40
2019-05-26T08:45:14.016Z,17.40
2019-05-26T08:46:27.246Z,17.50
2019-05-26T08:47:41.279Z,17.60
2019-05-26T08:48:54.511Z,17.50
2019-05-26T08:50:08.326Z,17.70
2019-05-26T08:51:21.575Z,17.90
2019-05-26T08:52:35.395Z,18.00
2019-05-26T08:53:48.621Z,18.10
2019-05-26T08:55:02.522Z,18.00
2019-05-26T08:56:15.755Z,17.70
2019-05-26T08:57:29.573Z,17.60
2019-05-26T08:58:42.891Z,17.60
2019-05-26T08:59:56.882Z,17.60
2019-05-26T09:01:10.134Z,17.60
2019-05-26T09:02:24.034Z,17.70
2019-05-26T09:03:37.462Z,17.50
2019-05-26T09:04:51.372Z,17.60
2019-05-26T09:06:05.776Z,17.70
2019-05-26T09:07:19.678Z,17.70
2019-05-26T09:08:32.931Z,17.90
2019-05-26T09:09:47.335Z,18.00
2019-05-26T09:11:00.582Z,18.10
2019-05-26T09:12:14.656Z,18.30
2019-05-26T09:13:27.920Z,18.50
2019-05-26T09:14:42.067Z,18.70
2019-05-26T09:15:55.302Z,18.50
2019-05-26T09:17:09.118Z,18.60
2019-05-26T09:18:22.353Z,18.60
2019-05-26T09:19:36.200Z,18.80
2019-05-26T09:20:49.417Z,18.70
2019-05-26T09:22:03.255Z,18.70
2019-05-26T09:23:16.494Z,18.80
2019-05-26T09:24:30.314Z,18.70
2019-05-26T09:25:46.415Z,18.80
2019-05-26T09:26:59.072Z,18.80
2019-05-26T09:28:12.310Z,18.70
2019-05-26T09:29:26.114Z,18.80
2019-05-26T09:30:39.360Z,18.70
2019-05-26T09:31:53.198Z,18.70
2019-05-26T09:33:06.490Z,18.70
2019-05-26T09:34:20.312Z,18.60
2019-05-26T09:35:33.538Z,18.40
2019-05-26T09:36:47.361Z,18.60
2019-05-26T09:38:00.603Z,18.60
2019-05-26T09:39:16.050Z,18.60
2019-05-26T09:40:29.357Z,18.60
2019-05-26T09:41:43.155Z,18.60
2019-05-26T09:42:56.391Z,18.70
2019-05-26T09:44:10.415Z,18.90
2019-05-26T09:45:23.710Z,19.00
2019-05-26T09:46:37.534Z,19.00
2019-05-26T09:47:50.785Z,19.00
2019-05-26T09:49:04.795Z,19.00
2019-05-26T09:50:18.027Z,19.00
2019-05-26T09:51:31.851Z,19.00
2019-05-26T09:52:45.286Z,18.90
2019-05-26T09:54:01.689Z,19.00
2019-05-26T09:55:14.931Z,19.10
2019-05-26T09:56:28.738Z,19.20
2019-05-26T09:57:41.991Z,19.20
2019-05-26T09:58:55.816Z,19.30
2019-05-26T10:00:09.734Z,19.30
2019-05-26T10:01:23.854Z,19.20
2019-05-26T10:02:37.154Z,19.10
2019-05-26T10:03:51.211Z,19.10
2019-05-26T10:05:06.287Z,19.10
2019-05-26T10:06:20.148Z,19.00
2019-05-26T10:07:33.383Z,19.20
2019-05-26T10:08:47.195Z,19.20
2019-05-26T10:10:00.421Z,19.30
2019-05-26T10:11:14.226Z,19.50
2019-05-26T10:12:27.544Z,19.50
2019-05-26T10:13:41.345Z,19.60
2019-05-26T10:14:54.582Z,19.80
2019-05-26T10:16:08.394Z,20.10
2019-05-26T10:17:23.305Z,20.30
2019-05-26T10:18:37.365Z,20.40
2019-05-26T10:19:50.598Z,20.60
2019-05-26T10:21:04.479Z,20.60
2019-05-26T10:22:17.715Z,20.40
2019-05-26T10:23:31.606Z,20.40
2019-05-26T10:24:44.837Z,20.40
2019-05-26T10:25:58.641Z,20.40
2019-05-26T10:27:12.119Z,20.50
2019-05-26T10:28:26.148Z,20.60
2019-05-26T10:29:39.910Z,20.60
2019-05-26T10:30:53.727Z,20.50
2019-05-26T10:32:06.954Z,20.40
2019-05-26T10:33:20.787Z,20.30
2019-05-26T10:34:34.231Z,20.50
2019-05-26T10:35:48.040Z,20.60
2019-05-26T10:37:01.274Z,20.90
2019-05-26T10:38:15.085Z,21.00
2019-05-26T10:39:28.326Z,21.20
2019-05-26T10:40:42.610Z,21.20
2019-05-26T10:41:55.854Z,21.10
2019-05-26T10:43:09.908Z,21.20
2019-05-26T10:44:23.134Z,20.80
2019-05-26T10:45:37.408Z,20.70
2019-05-26T10:46:50.628Z,20.80
2019-05-26T10:48:04.651Z,20.80
2019-05-26T10:49:17.974Z,20.80
2019-05-26T10:50:31.990Z,20.90
2019-05-26T10:51:45.223Z,21.00
2019-05-26T10:52:59.039Z,21.00
2019-05-26T10:54:12.258Z,21.00
2019-05-26T10:55:26.638Z,21.00
2019-05-26T10:56:39.872Z,21.10
2019-05-26T10:57:53.900Z,21.20
2019-05-26T10:59:07.126Z,21.60
2019-05-26T11:00:21.957Z,21.70
2019-05-26T11:01:35.194Z,21.60
2019-05-26T11:02:49.214Z,21.60
2019-05-26T11:04:02.472Z,21.40
2019-05-26T11:05:16.341Z,21.30
2019-05-26T11:06:29.575Z,21.20
2019-05-26T11:07:43.390Z,21.10
2019-05-26T11:08:56.622Z,21.10
2019-05-26T11:10:10.690Z,21.10
2019-05-26T11:11:23.933Z,21.20
2019-05-26T11:12:38.216Z,21.40
2019-05-26T11:14:02.294Z,21.50
2019-05-26T11:15:08.620Z,21.60
2019-05-26T11:16:22.331Z,21.70
2019-05-26T11:17:36.148Z,21.60
2019-05-26T11:18:49.374Z,21.70
2019-05-26T11:20:03.662Z,21.50
2019-05-26T11:21:16.936Z,21.60
2019-05-26T11:22:31.759Z,22.00
2019-05-26T11:23:44.999Z,22.40
2019-05-26T11:24:58.808Z,22.80
2019-05-26T11:26:12.043Z,23.00
2019-05-26T11:27:26.067Z,23.00
2019-05-26T11:28:39.818Z,23.60
2019-05-26T11:29:53.630Z,23.90
2019-05-26T11:31:06.871Z,24.30
2019-05-26T11:32:20.714Z,25.20
2019-05-26T11:33:33.937Z,25.10
2019-05-26T11:35:00.642Z,25.20
2019-05-26T11:36:02.694Z,25.40
2019-05-26T11:37:16.513Z,25.70
2019-05-26T11:38:33.287Z,26.60
2019-05-26T11:39:45.493Z,27.30
2019-05-26T11:40:59.325Z,27.60
2019-05-26T11:42:14.264Z,28.30
2019-05-26T11:43:27.746Z,28.60
2019-05-26T11:44:41.644Z,29.10
2019-05-26T11:45:54.883Z,29.30
2019-05-26T11:47:09.395Z,29.30
2019-05-26T11:48:22.622Z,29.40
2019-05-26T11:49:36.467Z,28.70
2019-05-26T11:50:49.769Z,27.70
2019-05-26T11:52:03.602Z,28.00
2019-05-26T11:53:16.839Z,28.40
2019-05-26T11:54:34.432Z,28.50
2019-05-26T11:55:48.093Z,28.60
2019-05-26T11:57:01.904Z,27.80
2019-05-26T11:58:15.134Z,27.90
2019-05-26T11:59:28.966Z,27.40
2019-05-26T12:00:42.563Z,27.20
2019-05-26T12:01:56.730Z,27.00
2019-05-26T12:03:10.017Z,27.50
2019-05-26T12:04:24.523Z,27.00
2019-05-26T12:05:37.767Z,26.60
2019-05-26T12:06:51.571Z,25.70
2019-05-26T12:08:04.937Z,25.10
2019-05-26T12:09:19.641Z,25.20
2019-05-26T12:10:32.944Z,25.30
2019-05-26T12:11:47.220Z,24.70
2019-05-26T12:13:00.679Z,24.70
2019-05-26T12:14:14.722Z,24.20
2019-05-26T12:15:27.954Z,24.10
2019-05-26T12:16:41.775Z,24.50
2019-05-26T12:17:54.998Z,25.10
2019-05-26T12:19:09.099Z,25.90
2019-05-26T12:20:22.385Z,26.40
2019-05-26T12:21:36.786Z,26.30
2019-05-26T12:22:50.017Z,26.50
2019-05-26T12:24:05.039Z,26.00
2019-05-26T12:25:18.473Z,25.80
2019-05-26T12:26:32.289Z,25.10
2019-05-26T12:27:46.770Z,24.10
2019-05-26T12:29:01.053Z,23.10
2019-05-26T12:30:14.293Z,22.90
2019-05-26T12:31:28.102Z,22.70
2019-05-26T12:32:42.338Z,22.50
2019-05-26T12:33:56.434Z,22.30
2019-05-26T12:35:10.549Z,22.20
2019-05-26T12:36:24.367Z,22.10
2019-05-26T12:37:37.877Z,22.40
2019-05-26T12:38:51.973Z,23.50
2019-05-26T12:40:06.134Z,24.20
2019-05-26T12:41:21.290Z,25.40
2019-05-26T12:42:34.522Z,26.30
2019-05-26T12:43:48.349Z,26.30
2019-05-26T12:45:01.594Z,26.10
2019-05-26T12:46:15.407Z,26.90
2019-05-26T12:47:29.672Z,27.40
2019-05-26T12:48:45.112Z,27.30
2019-05-26T12:49:58.366Z,27.90
2019-05-26T12:51:12.190Z,27.80
2019-05-26T12:52:25.439Z,26.60
2019-05-26T12:53:39.254Z,26.70
2019-05-26T12:54:52.502Z,26.20
2019-05-26T12:56:06.357Z,26.90
2019-05-26T12:57:19.808Z,26.90
2019-05-26T12:58:33.613Z,26.40
2019-05-26T12:59:46.864Z,26.40
2019-05-26T13:01:00.892Z,25.90
2019-05-26T13:02:14.130Z,25.70
2019-05-26T13:03:28.055Z,26.20
2019-05-26T13:04:41.490Z,27.00
2019-05-26T13:05:55.314Z,27.70
2019-05-26T13:07:08.559Z,28.20
2019-05-26T13:08:23.386Z,28.70
2019-05-26T13:09:36.626Z,29.40
2019-05-26T13:10:50.434Z,29.50
2019-05-26T13:12:03.691Z,28.80
2019-05-26T13:13:17.486Z,28.90
2019-05-26T13:14:31.015Z,28.60
2019-05-26T13:15:44.832Z,29.00
2019-05-26T13:17:01.414Z,29.50
2019-05-26T13:18:14.920Z,29.30
2019-05-26T13:19:28.450Z,28.90
2019-05-26T13:20:42.330Z,28.30
2019-05-26T13:21:55.563Z,27.90
2019-05-26T13:23:09.370Z,27.40
2019-05-26T13:24:22.602Z,27.20
2019-05-26T13:25:36.410Z,27.60
2019-05-26T13:26:49.718Z,27.30
2019-05-26T13:28:03.350Z,27.30
2019-05-26T13:29:16.604Z,27.40
2019-05-26T13:30:31.701Z,27.20
2019-05-26T13:31:44.952Z,27.00
2019-05-26T13:32:59.014Z,27.00
2019-05-26T13:34:12.229Z,26.80
2019-05-26T13:35:26.063Z,26.90
2019-05-26T13:36:39.320Z,26.70
2019-05-26T13:37:53.123Z,26.70
2019-05-26T13:39:08.008Z,26.30
2019-05-26T13:40:21.817Z,25.80
2019-05-26T13:41:35.063Z,25.60
2019-05-26T13:42:48.887Z,25.60
2019-05-26T13:44:02.114Z,25.20
2019-05-26T13:45:22.383Z,24.70
2019-05-26T13:46:30.996Z,24.80
2019-05-26T13:47:44.803Z,25.20
2019-05-26T13:48:58.664Z,25.30
2019-05-26T13:50:12.497Z,24.70
2019-05-26T13:51:26.186Z,24.70
2019-05-26T13:52:40.576Z,24.50
2019-05-26T13:53:54.266Z,24.20
2019-05-26T13:55:08.710Z,24.20
2019-05-26T13:56:21.974Z,24.20
2019-05-26T13:57:36.002Z,24.30
2019-05-26T13:58:49.228Z,24.50
2019-05-26T14:00:03.498Z,24.70
2019-05-26T14:01:17.250Z,24.60
2019-05-26T14:02:31.239Z,24.60
2019-05-26T14:03:44.470Z,24.50
2019-05-26T14:04:59.852Z,23.90
2019-05-26T14:06:13.102Z,24.40
2019-05-26T14:07:26.923Z,24.70
2019-05-26T14:08:40.166Z,25.20
2019-05-26T14:09:55.822Z,25.80
2019-05-26T14:11:09.056Z,26.20
2019-05-26T14:12:22.870Z,26.40
2019-05-26T14:13:36.124Z,26.10
2019-05-26T14:14:50.068Z,26.50
2019-05-26T14:16:04.390Z,26.80
2019-05-26T14:17:18.655Z,26.70
2019-05-26T14:18:31.880Z,27.00
2019-05-26T14:19:45.710Z,26.70
2019-05-26T14:21:00.241Z,26.80
2019-05-26T14:22:14.065Z,27.60
2019-05-26T14:23:27.317Z,28.10
2019-05-26T14:24:53.390Z,28.80
2019-05-26T14:25:56.079Z,29.50
2019-05-26T14:27:09.904Z,29.00
2019-05-26T14:28:23.126Z,29.00
2019-05-26T14:29:36.951Z,29.60
2019-05-26T14:30:50.383Z,29.50
2019-05-26T14:32:04.194Z,28.60
2019-05-26T14:33:17.428Z,29.00
2019-05-26T14:34:31.251Z,29.10
2019-05-26T14:35:44.486Z,29.10
2019-05-26T14:36:59.051Z,28.80
2019-05-26T14:38:12.284Z,28.40
2019-05-26T14:39:26.090Z,28.20
2019-05-26T14:40:39.543Z,27.80
2019-05-26T14:41:53.363Z,27.70
2019-05-26T14:43:06.815Z,26.90
2019-05-26T14:44:20.623Z,26.90
2019-05-26T14:45:36.070Z,26.30
2019-05-26T14:46:50.943Z,26.20
2019-05-26T14:48:05.111Z,26.20
2019-05-26T14:49:18.936Z,26.20
2019-05-26T14:50:32.455Z,25.90
2019-05-26T14:51:46.273Z,25.90
2019-05-26T14:52:59.507Z,25.80
2019-05-26T14:54:13.560Z,25.70
2019-05-26T14:55:26.804Z,25.70
2019-05-26T14:56:40.617Z,25.60
2019-05-26T14:57:54.105Z,25.50
2019-05-26T14:59:07.916Z,25.60
2019-05-26T15:00:21.622Z,25.50
2019-05-26T15:01:35.434Z,25.20
2019-05-26T15:02:48.774Z,24.80
2019-05-26T15:04:02.589Z,24.60
2019-05-26T15:05:15.826Z,24.40
2019-05-26T15:06:29.630Z,24.60
2019-05-26T15:07:42.868Z,24.40
2019-05-26T15:08:56.930Z,24.20
2019-05-26T15:10:11.991Z,24.10
2019-05-26T15:11:25.814Z,24.10
2019-05-26T15:12:39.038Z,23.90
2019-05-26T15:13:53.880Z,24.00
2019-05-26T15:15:07.115Z,24.10
2019-05-26T15:16:21.614Z,24.20
2019-05-26T15:17:34.823Z,24.20
2019-05-26T15:18:48.715Z,24.40
2019-05-26T15:20:01.970Z,24.50
2019-05-26T15:21:18.095Z,24.50
2019-05-26T15:22:31.047Z,24.40
2019-05-26T15:23:44.866Z,24.40
2019-05-26T15:24:58.108Z,24.40
2019-05-26T15:26:12.122Z,24.50
2019-05-26T15:27:25.355Z,24.50
2019-05-26T15:28:41.218Z,24.70
2019-05-26T15:29:54.460Z,24.60
2019-05-26T15:31:10.210Z,24.70
2019-05-26T15:32:23.257Z,24.60
2019-05-26T15:33:37.086Z,24.80
2019-05-26T15:34:50.322Z,24.90
2019-05-26T15:36:04.142Z,25.00
2019-05-26T15:37:17.379Z,24.70
2019-05-26T15:38:42.385Z,24.80
2019-05-26T15:39:46.154Z,24.80
2019-05-26T15:41:00.189Z,24.90
2019-05-26T15:42:13.415Z,25.00
2019-05-26T15:43:27.223Z,25.20
2019-05-26T15:44:41.981Z,24.90
2019-05-26T15:45:56.028Z,25.00
2019-05-26T15:47:09.971Z,24.60
2019-05-26T15:48:24.926Z,24.90
2019-05-26T15:49:38.159Z,24.90